createdAt,value
2023-12-07T00:00:18.902Z,100166.63
2023-12-07T00:02:45.961Z,100158.50
2023-12-07T00:05:12.838Z,100164.91
2023-12-07T00:07:39.720Z,100167.06
2023-12-07T00:10:07.411Z,100165.53
2023-12-07T00:12:34.287Z,100177.44
2023-12-07T00:15:01.074Z,100180.06
2023-12-07T00:17:27.978Z,100162.44
2023-12-07T00:19:55.113Z,100168.63
2023-12-07T00:22:22.446Z,100165.59
2023-12-07T00:24:49.763Z,100176.38
2023-12-07T00:27:16.646Z,100173.91
2023-12-07T00:29:43.573Z,100179.16
2023-12-07T00:32:10.344Z,100182.28
2023-12-07T00:34:37.236Z,100177.88
2023-12-07T00:37:04.768Z,100182.06
2023-12-07T00:39:31.563Z,100181.13
2023-12-07T00:41:58.609Z,100179.16
2023-12-07T00:44:25.819Z,100173.75
2023-12-07T00:46:52.642Z,100170.13
2023-12-07T00:49:19.556Z,100173.97
2023-12-07T00:51:46.509Z,100181.72
2023-12-07T00:54:13.466Z,100174.94
2023-12-07T00:56:40.791Z,100181.88
2023-12-07T00:59:08.188Z,100172.81
2023-12-07T01:01:34.976Z,100180.31
2023-12-07T01:04:01.752Z,100184.44
2023-12-07T01:06:29.971Z,100177.44
2023-12-07T01:08:56.784Z,100176.81
2023-12-07T01:11:23.676Z,100183.63
2023-12-07T01:13:50.542Z,100179.50
2023-12-07T01:16:17.486Z,100185.84
2023-12-07T01:18:45.689Z,100173.75
2023-12-07T01:21:13.844Z,100178.34
2023-12-07T01:23:40.738Z,100181.66
2023-12-07T01:26:08.356Z,100176.72
2023-12-07T01:28:35.376Z,100178.34
2023-12-07T01:31:02.288Z,100177.88
2023-12-07T01:33:29.140Z,100175.78
2023-12-07T01:35:55.990Z,100180.41
2023-12-07T01:38:23.146Z,100180.41
2023-12-07T01:40:49.995Z,100183.28
2023-12-07T01:43:16.956Z,100177.44
2023-12-07T01:45:43.916Z,100189.16
2023-12-07T01:48:11.076Z,100180.25
2023-12-07T01:50:38.436Z,100181.13
2023-12-07T01:53:08.841Z,100180.25
2023-12-07T01:55:37.797Z,100173.16
2023-12-07T01:58:05.598Z,100175.59
2023-12-07T02:00:32.609Z,100176.47
2023-12-07T02:02:59.805Z,100178.09
2023-12-07T02:05:27.314Z,100184.19
2023-12-07T02:07:55.027Z,100180.19
2023-12-07T02:10:21.960Z,100184.19
2023-12-07T02:12:49.879Z,100172.81
2023-12-07T02:15:17.292Z,100177.34
2023-12-07T02:18:22.820Z,100172.81
2023-12-07T02:21:14.632Z,100176.13
2023-12-07T02:23:49.565Z,100178.69
2023-12-07T02:26:35.620Z,100179.59
2023-12-07T02:29:02.425Z,100176.59
2023-12-07T02:31:30.085Z,100187.22
2023-12-07T02:33:57.459Z,100181.53
2023-12-07T02:36:28.104Z,100177.13
2023-12-07T02:38:58.278Z,100181.41
2023-12-07T02:41:27.204Z,100184.53
2023-12-07T02:43:55.119Z,100191.28
2023-12-07T02:46:22.210Z,100182.97
2023-12-07T02:48:49.329Z,100188.09
2023-12-07T02:51:16.757Z,100187.16
2023-12-07T02:53:43.628Z,100186.41
2023-12-07T02:56:10.604Z,100189.25
2023-12-07T02:58:37.432Z,100183.38
2023-12-07T03:01:04.544Z,100187.41
2023-12-07T03:03:31.393Z,100186.53
2023-12-07T03:05:58.268Z,100194.25
2023-12-07T03:08:25.093Z,100200.59
2023-12-07T03:10:51.919Z,100189.56
2023-12-07T03:13:18.676Z,100194.56
2023-12-07T03:15:45.487Z,100199.84
2023-12-07T03:18:13.018Z,100203.63
2023-12-07T03:20:39.949Z,100207.69
2023-12-07T03:23:06.986Z,100206.00
2023-12-07T03:25:34.133Z,100203.22
2023-12-07T03:28:01.884Z,100204.72
2023-12-07T03:30:28.832Z,100200.56
2023-12-07T03:32:55.770Z,100203.41
2023-12-07T03:35:22.741Z,100202.00
2023-12-07T03:37:49.563Z,100209.09
2023-12-07T03:40:16.669Z,100214.19
2023-12-07T03:42:51.539Z,100207.00
2023-12-07T03:45:24.060Z,100208.25
2023-12-07T03:47:51.041Z,100213.06
2023-12-07T03:50:17.874Z,100213.63
2023-12-07T03:52:44.785Z,100218.91
2023-12-07T03:55:12.548Z,100222.13
2023-12-07T03:57:39.852Z,100218.91
2023-12-07T04:00:11.754Z,100219.81
2023-12-07T04:02:38.595Z,100218.72
2023-12-07T04:05:05.818Z,100220.28
2023-12-07T04:07:32.681Z,100221.84
2023-12-07T04:09:59.647Z,100219.34
2023-12-07T04:12:26.841Z,100220.56
2023-12-07T04:14:54.314Z,100226.84
2023-12-07T04:17:22.741Z,100228.78
2023-12-07T04:19:49.985Z,100230.50
2023-12-07T04:22:16.822Z,100230.22
2023-12-07T04:24:43.570Z,100238.63
2023-12-07T04:27:10.506Z,100242.09
2023-12-07T04:29:37.270Z,100241.19
2023-12-07T04:32:04.719Z,100228.78
2023-12-07T04:34:31.663Z,100241.66
2023-12-07T04:36:59.651Z,100239.56
2023-12-07T04:39:26.624Z,100238.75
2023-12-07T04:41:53.452Z,100250.03
2023-12-07T04:44:20.696Z,100244.97
2023-12-07T04:46:47.661Z,100243.56
2023-12-07T04:49:17.657Z,100243.97
2023-12-07T04:51:47.786Z,100243.88
2023-12-07T04:54:19.680Z,100249.91
2023-12-07T04:56:47.370Z,100240.72
2023-12-07T04:59:14.162Z,100247.75
2023-12-07T05:01:41.085Z,100251.69
2023-12-07T05:04:08.123Z,100249.84
2023-12-07T05:06:35.793Z,100262.41
2023-12-07T05:09:02.646Z,100258.47
2023-12-07T05:11:29.378Z,100262.78
2023-12-07T05:13:56.111Z,100261.56
2023-12-07T05:16:23.035Z,100270.72
2023-12-07T05:18:49.952Z,100268.63
2023-12-07T05:21:16.756Z,100274.94
2023-12-07T05:23:43.705Z,100280.28
2023-12-07T05:26:12.199Z,100271.53
2023-12-07T05:28:39.538Z,100280.69
2023-12-07T05:31:06.606Z,100278.41
2023-12-07T05:33:33.518Z,100280.91
2023-12-07T05:36:01.810Z,100284.13
2023-12-07T05:38:28.642Z,100289.78
2023-12-07T05:40:55.424Z,100283.00
2023-12-07T05:43:22.176Z,100284.16
2023-12-07T05:45:49.000Z,100284.16
2023-12-07T05:48:16.435Z,100281.19
2023-12-07T05:50:45.478Z,100283.53
2023-12-07T05:53:12.524Z,100287.13
2023-12-07T05:55:40.693Z,100294.00
2023-12-07T05:58:08.504Z,100291.50
2023-12-07T06:00:35.517Z,100290.50
2023-12-07T06:03:04.163Z,100297.00
2023-12-07T06:05:31.538Z,100301.06
2023-12-07T06:07:58.302Z,100297.53
2023-12-07T06:10:25.229Z,100307.22
2023-12-07T06:12:52.284Z,100307.22
2023-12-07T06:15:19.169Z,100307.69
2023-12-07T06:17:46.002Z,100307.25
2023-12-07T06:20:12.971Z,100312.56
2023-12-07T06:22:40.161Z,100300.91
2023-12-07T06:25:07.228Z,100312.88
2023-12-07T06:27:35.273Z,100311.56
2023-12-07T06:30:02.908Z,100313.09
2023-12-07T06:32:29.988Z,100310.00
2023-12-07T06:34:56.900Z,100312.72
2023-12-07T06:37:23.979Z,100311.63
2023-12-07T06:39:50.844Z,100313.84
2023-12-07T06:42:18.009Z,100318.25
2023-12-07T06:44:45.356Z,100318.03
2023-12-07T06:47:12.287Z,100326.09
2023-12-07T06:49:49.631Z,100325.88
2023-12-07T06:52:19.257Z,100326.59
2023-12-07T06:54:46.604Z,100320.88
2023-12-07T06:57:13.750Z,100331.06
2023-12-07T06:59:42.333Z,100339.34
2023-12-07T07:02:09.410Z,100325.56
2023-12-07T07:04:36.258Z,100333.19
2023-12-07T07:07:03.194Z,100331.13
2023-12-07T07:09:30.072Z,100331.50
2023-12-07T07:11:57.044Z,100336.56
2023-12-07T07:14:23.967Z,100331.06
2023-12-07T07:16:50.811Z,100334.22
2023-12-07T07:19:18.293Z,100338.56
2023-12-07T07:21:45.378Z,100346.63
2023-12-07T07:24:12.480Z,100348.00
2023-12-07T07:26:39.798Z,100347.16
2023-12-07T07:29:07.681Z,100342.72
2023-12-07T07:31:34.708Z,100350.22
2023-12-07T07:34:02.120Z,100349.41
2023-12-07T07:36:29.994Z,100346.84
2023-12-07T07:38:56.911Z,100350.78
2023-12-07T07:41:24.646Z,100347.69
2023-12-07T07:43:52.018Z,100358.41
2023-12-07T07:46:18.870Z,100348.94
2023-12-07T07:48:46.011Z,100356.63
2023-12-07T07:51:12.836Z,100351.91
2023-12-07T07:53:39.637Z,100357.81
2023-12-07T07:56:06.659Z,100355.25
2023-12-07T07:58:33.664Z,100356.66
2023-12-07T08:01:00.760Z,100359.50
2023-12-07T08:03:27.798Z,100357.53
2023-12-07T08:05:54.669Z,100367.75
2023-12-07T08:08:22.554Z,100360.97
2023-12-07T08:10:54.901Z,100360.97
2023-12-07T08:13:23.890Z,100359.16
2023-12-07T08:15:50.676Z,100364.50
2023-12-07T08:18:17.528Z,100369.19
2023-12-07T08:20:44.801Z,100371.41
2023-12-07T08:23:14.684Z,100370.59
2023-12-07T08:25:41.617Z,100376.13
2023-12-07T08:28:10.720Z,100372.44
2023-12-07T08:30:37.943Z,100367.06
2023-12-07T08:33:04.976Z,100364.00
2023-12-07T08:35:33.226Z,100374.25
2023-12-07T08:38:00.049Z,100377.63
2023-12-07T08:40:26.953Z,100377.69
2023-12-07T08:42:56.378Z,100377.19
2023-12-07T08:45:23.368Z,100376.88
2023-12-07T08:47:50.666Z,100375.88
2023-12-07T08:50:17.674Z,100382.44
2023-12-07T08:52:48.098Z,100381.09
2023-12-07T08:55:20.533Z,100390.50
2023-12-07T08:57:47.689Z,100385.69
2023-12-07T09:00:14.950Z,100394.72
2023-12-07T09:02:46.927Z,100393.31
2023-12-07T09:05:15.641Z,100389.34
2023-12-07T09:07:42.854Z,100394.53
2023-12-07T09:10:10.665Z,100394.34
2023-12-07T09:12:39.718Z,100395.09
2023-12-07T09:15:11.727Z,100398.97
2023-12-07T09:17:43.136Z,100396.69
2023-12-07T09:20:15.011Z,100395.19
2023-12-07T09:22:44.781Z,100392.72
2023-12-07T09:25:12.719Z,100404.56
2023-12-07T09:27:40.818Z,100402.41
2023-12-07T09:30:12.614Z,100387.13
2023-12-07T09:32:45.415Z,100388.66
2023-12-07T09:35:21.120Z,100385.44
2023-12-07T09:37:50.254Z,100383.44
2023-12-07T09:40:22.097Z,100383.56
2023-12-07T09:42:50.617Z,100392.50
2023-12-07T09:45:21.006Z,100388.78
2023-12-07T09:47:50.311Z,100385.44
2023-12-07T09:50:24.732Z,100395.22
2023-12-07T09:53:06.965Z,100404.56
2023-12-07T09:55:39.392Z,100396.97
2023-12-07T09:58:09.111Z,100398.06
2023-12-07T10:00:37.517Z,100393.75
2023-12-07T10:03:05.879Z,100394.94
2023-12-07T10:05:32.823Z,100400.38
2023-12-07T10:07:59.781Z,100393.97
2023-12-07T10:10:27.582Z,100391.63
2023-12-07T10:12:56.878Z,100379.47
2023-12-07T10:15:25.327Z,100385.66
2023-12-07T10:17:52.737Z,100392.19
2023-12-07T10:20:25.445Z,100383.59
2023-12-07T10:23:08.713Z,100399.00
2023-12-07T10:25:40.342Z,100401.03
2023-12-07T10:28:09.255Z,100388.09
2023-12-07T10:30:40.464Z,100394.16
2023-12-07T10:33:11.475Z,100387.59
2023-12-07T10:35:42.729Z,100393.06
2023-12-07T10:38:10.914Z,100395.97
2023-12-07T10:40:38.066Z,100381.44
2023-12-07T10:43:09.650Z,100386.44
2023-12-07T10:45:40.650Z,100389.34
2023-12-07T10:48:12.255Z,100378.81
2023-12-07T10:50:45.278Z,100384.28
2023-12-07T10:53:20.660Z,100385.13
2023-12-07T10:55:54.478Z,100387.88
2023-12-07T10:58:26.599Z,100394.56
2023-12-07T11:00:57.998Z,100397.72
2023-12-07T11:03:26.126Z,100394.78
2023-12-07T11:05:55.990Z,100407.47
2023-12-07T11:08:32.369Z,100393.00
2023-12-07T11:11:16.298Z,100394.16
2023-12-07T11:13:56.532Z,100396.47
2023-12-07T11:16:36.026Z,100394.59
2023-12-07T11:19:03.429Z,100392.44
2023-12-07T11:21:30.932Z,100388.31
2023-12-07T11:24:03.291Z,100397.34
2023-12-07T11:26:30.669Z,100387.09
2023-12-07T11:28:58.432Z,100390.97
2023-12-07T11:31:27.337Z,100392.28
2023-12-07T11:33:54.938Z,100396.03
2023-12-07T11:36:21.909Z,100409.28
2023-12-07T11:39:04.529Z,100394.53
2023-12-07T11:41:35.911Z,100395.44
2023-12-07T11:44:02.856Z,100397.09
2023-12-07T11:46:29.949Z,100404.47
2023-12-07T11:48:57.487Z,100400.13
2023-12-07T11:51:24.615Z,100401.88
2023-12-07T11:53:52.791Z,100399.25
2023-12-07T11:56:22.836Z,100401.47
2023-12-07T11:58:50.944Z,100398.31
2023-12-07T12:01:18.730Z,100402.03
2023-12-07T12:03:45.804Z,100405.44
2023-12-07T12:06:13.404Z,100401.31
2023-12-07T12:08:44.618Z,100404.25
2023-12-07T12:11:12.059Z,100406.75
2023-12-07T12:13:39.434Z,100405.28
2023-12-07T12:16:07.782Z,100414.03
2023-12-07T12:18:36.362Z,100407.25
2023-12-07T12:21:03.849Z,100396.97
2023-12-07T12:23:31.061Z,100399.41
2023-12-07T12:25:58.422Z,100411.38
2023-12-07T12:28:27.222Z,100406.59
2023-12-07T12:30:55.876Z,100415.56
2023-12-07T12:33:22.662Z,100402.78
2023-12-07T12:36:05.630Z,100412.09
2023-12-07T12:38:38.887Z,100417.09
2023-12-07T12:41:10.786Z,100413.16
2023-12-07T12:43:37.732Z,100413.28
2023-12-07T12:46:06.670Z,100418.13
2023-12-07T12:48:34.715Z,100413.22
2023-12-07T12:51:15.074Z,100422.16
2023-12-07T12:53:51.332Z,100424.44
2023-12-07T12:56:20.839Z,100423.84
2023-12-07T12:58:47.850Z,100422.47
2023-12-07T13:01:17.453Z,100428.75
2023-12-07T13:03:47.031Z,100427.19
2023-12-07T13:06:15.630Z,100432.88
2023-12-07T13:08:44.852Z,100433.88
2023-12-07T13:11:17.130Z,100435.69
2023-12-07T13:13:44.145Z,100432.00
2023-12-07T13:16:13.241Z,100431.88
2023-12-07T13:18:40.127Z,100435.84
2023-12-07T13:21:07.146Z,100431.41
2023-12-07T13:23:34.049Z,100433.69
2023-12-07T13:26:00.891Z,100437.34
2023-12-07T13:28:27.829Z,100433.97
2023-12-07T13:30:55.943Z,100435.66
2023-12-07T13:33:28.098Z,100445.56
2023-12-07T13:35:57.739Z,100445.44
2023-12-07T13:38:25.191Z,100439.25
2023-12-07T13:40:52.347Z,100446.13
2023-12-07T13:43:19.468Z,100454.84
2023-12-07T13:45:46.895Z,100463.53
2023-12-07T13:48:14.676Z,100459.44
2023-12-07T13:50:43.582Z,100464.09
2023-12-07T13:53:13.957Z,100463.13
2023-12-07T13:55:41.230Z,100471.84
2023-12-07T13:58:08.402Z,100465.84
2023-12-07T14:00:35.700Z,100464.47
2023-12-07T14:03:02.759Z,100464.50
2023-12-07T14:05:29.770Z,100474.31
2023-12-07T14:07:57.081Z,100472.13
2023-12-07T14:10:24.729Z,100477.44
2023-12-07T14:12:51.958Z,100486.41
2023-12-07T14:15:25.762Z,100486.03
2023-12-07T14:17:58.101Z,100495.63
2023-12-07T14:23:05.525Z,100498.88
2023-12-07T14:25:34.637Z,100504.25
2023-12-07T14:28:01.509Z,100502.50
2023-12-07T14:30:28.296Z,100499.03
2023-12-07T14:32:55.194Z,100500.50
2023-12-07T14:35:25.752Z,100507.16
2023-12-07T14:37:52.734Z,100504.69
2023-12-07T14:40:20.410Z,100518.66
2023-12-07T14:42:47.377Z,100510.72
2023-12-07T14:45:16.655Z,100508.22
2023-12-07T14:47:48.227Z,100518.38
2023-12-07T14:50:15.024Z,100513.88
2023-12-07T14:52:41.902Z,100522.09
2023-12-07T14:55:10.282Z,100527.00
2023-12-07T14:57:37.040Z,100522.69
2023-12-07T15:00:05.745Z,100523.75
2023-12-07T15:02:33.063Z,100530.84
2023-12-07T15:05:00.073Z,100539.13
2023-12-07T15:07:26.820Z,100533.28
2023-12-07T15:09:53.711Z,100536.19
2023-12-07T15:12:21.191Z,100534.34
2023-12-07T15:14:48.076Z,100532.13
2023-12-07T15:17:15.343Z,100534.56
2023-12-07T15:19:42.636Z,100535.06
2023-12-07T15:22:12.926Z,100536.28
2023-12-07T15:24:40.928Z,100538.59
2023-12-07T15:27:09.524Z,100544.84
2023-12-07T15:29:38.646Z,100540.22
2023-12-07T15:32:06.842Z,100541.53
2023-12-07T15:34:39.099Z,100548.63
2023-12-07T15:37:08.834Z,100541.94
2023-12-07T15:39:35.722Z,100539.47
2023-12-07T15:42:03.791Z,100540.00
2023-12-07T15:44:32.142Z,100543.94
2023-12-07T15:47:01.085Z,100554.88
2023-12-07T15:49:28.160Z,100548.84
2023-12-07T15:51:57.664Z,100555.41
2023-12-07T15:54:34.934Z,100557.25
2023-12-07T15:57:07.706Z,100566.88
2023-12-07T15:59:35.195Z,100570.75
2023-12-07T16:02:02.445Z,100570.34
2023-12-07T16:04:33.921Z,100575.31
2023-12-07T16:07:07.326Z,100570.25
2023-12-07T16:09:37.425Z,100569.09
2023-12-07T16:12:07.308Z,100584.13
2023-12-07T16:14:35.552Z,100590.16
2023-12-07T16:17:03.175Z,100584.22
2023-12-07T16:19:30.994Z,100587.47
2023-12-07T16:21:58.509Z,100583.50
2023-12-07T16:24:25.352Z,100592.63
2023-12-07T16:26:53.640Z,100589.09
2023-12-07T16:29:22.797Z,100586.38
2023-12-07T16:31:50.379Z,100590.66
2023-12-07T16:34:17.938Z,100588.97
2023-12-07T16:36:46.310Z,100598.38
2023-12-07T16:39:14.473Z,100586.72
2023-12-07T16:41:48.252Z,100595.81
2023-12-07T16:44:19.491Z,100599.34
2023-12-07T16:46:47.113Z,100601.53
2023-12-07T16:49:17.131Z,100603.38
2023-12-07T16:51:44.625Z,100602.78
2023-12-07T16:54:11.641Z,100608.75
2023-12-07T16:56:38.627Z,100613.16
2023-12-07T16:59:05.590Z,100613.09
2023-12-07T17:01:32.497Z,100610.25
2023-12-07T17:03:59.591Z,100610.75
2023-12-07T17:06:27.027Z,100610.34
2023-12-07T17:09:07.837Z,100610.41
2023-12-07T17:11:42.676Z,100620.69
2023-12-07T17:14:10.989Z,100625.59
2023-12-07T17:16:40.274Z,100625.19
2023-12-07T17:19:07.560Z,100625.75
2023-12-07T17:21:34.519Z,100633.22
2023-12-07T17:24:02.089Z,100632.09
2023-12-07T17:26:36.117Z,100629.94
2023-12-07T17:29:06.668Z,100641.53
2023-12-07T17:31:33.476Z,100640.56
2023-12-07T17:34:01.164Z,100645.81
2023-12-07T17:36:28.982Z,100644.06
2023-12-07T17:38:56.120Z,100642.53
2023-12-07T17:41:24.030Z,100644.28
2023-12-07T17:43:52.961Z,100645.97
2023-12-07T17:46:21.327Z,100644.94
2023-12-07T17:48:49.834Z,100638.31
2023-12-07T17:51:17.158Z,100643.66
2023-12-07T17:53:44.360Z,100634.75
2023-12-07T17:56:11.733Z,100641.22
2023-12-07T17:58:38.647Z,100641.72
2023-12-07T18:01:07.984Z,100644.16
2023-12-07T18:03:36.678Z,100642.94
2023-12-07T18:06:13.221Z,100638.66
2023-12-07T18:08:40.271Z,100637.56
2023-12-07T18:11:07.565Z,100640.28
2023-12-07T18:13:34.354Z,100645.41
2023-12-07T18:16:01.556Z,100648.19
2023-12-07T18:18:29.295Z,100644.66
2023-12-07T18:20:56.284Z,100648.75
2023-12-07T18:23:23.179Z,100653.28
2023-12-07T18:25:50.204Z,100650.59
2023-12-07T18:28:17.218Z,100650.50
2023-12-07T18:30:45.272Z,100648.09
2023-12-07T18:33:12.708Z,100649.16
2023-12-07T18:35:39.774Z,100650.66
2023-12-07T18:38:08.901Z,100651.44
2023-12-07T18:40:36.997Z,100655.00
2023-12-07T18:43:06.756Z,100653.22
2023-12-07T18:45:33.535Z,100651.56
2023-12-07T18:48:00.682Z,100656.41
2023-12-07T18:50:27.618Z,100658.41
2023-12-07T18:52:54.510Z,100662.56
2023-12-07T18:55:21.294Z,100663.44
2023-12-07T18:57:52.885Z,100657.16
2023-12-07T19:00:21.621Z,100662.09
2023-12-07T19:02:48.600Z,100660.25
2023-12-07T19:05:16.814Z,100669.31
2023-12-07T19:07:43.688Z,100662.34
2023-12-07T19:10:10.900Z,100649.91
2023-12-07T19:12:37.673Z,100660.72
2023-12-07T19:15:05.071Z,100657.44
2023-12-07T19:17:33.924Z,100660.88
2023-12-07T19:20:01.443Z,100667.69
2023-12-07T19:22:29.741Z,100663.53
2023-12-07T19:24:58.368Z,100664.31
2023-12-07T19:27:25.916Z,100672.28
2023-12-07T19:29:52.980Z,100669.31
2023-12-07T19:32:19.955Z,100671.25
2023-12-07T19:34:47.025Z,100680.94
2023-12-07T19:37:13.994Z,100678.44
2023-12-07T19:39:40.824Z,100682.13
2023-12-07T19:42:08.807Z,100670.91
2023-12-07T19:44:35.997Z,100662.91
2023-12-07T19:47:03.057Z,100673.97
2023-12-07T19:49:30.220Z,100672.31
2023-12-07T19:52:01.799Z,100667.31
2023-12-07T19:54:28.894Z,100676.03
2023-12-07T19:56:56.123Z,100665.53
2023-12-07T19:59:23.014Z,100678.31
2023-12-07T20:01:50.247Z,100672.28
2023-12-07T20:04:17.478Z,100665.63
2023-12-07T20:06:44.402Z,100672.75
2023-12-07T20:09:13.279Z,100670.19
2023-12-07T20:11:40.129Z,100666.41
2023-12-07T20:14:09.920Z,100673.72
2023-12-07T20:16:38.644Z,100669.97
2023-12-07T20:19:07.672Z,100682.47
2023-12-07T20:21:36.829Z,100673.50
2023-12-07T20:24:04.152Z,100676.06
2023-12-07T20:26:31.478Z,100686.75
2023-12-07T20:28:58.338Z,100681.13
2023-12-07T20:31:25.529Z,100683.34
2023-12-07T20:33:52.861Z,100682.31
2023-12-07T20:36:19.722Z,100681.50
2023-12-07T20:38:46.705Z,100690.22
2023-12-07T20:41:13.574Z,100687.88
2023-12-07T20:43:40.712Z,100688.00
2023-12-07T20:46:08.379Z,100695.16
2023-12-07T20:48:35.689Z,100692.19
2023-12-07T20:51:03.485Z,100694.41
2023-12-07T20:53:30.662Z,100699.47
2023-12-07T20:56:00.300Z,100697.25
2023-12-07T20:58:33.112Z,100686.84
2023-12-07T21:01:00.201Z,100693.66
2023-12-07T21:03:27.396Z,100691.66
2023-12-07T21:05:55.111Z,100686.97
2023-12-07T21:08:22.085Z,100697.13
2023-12-07T21:10:48.831Z,100696.63
2023-12-07T21:13:15.835Z,100696.22
2023-12-07T21:15:42.980Z,100704.41
2023-12-07T21:18:10.774Z,100702.25
2023-12-07T21:20:38.025Z,100698.53
2023-12-07T21:23:04.914Z,100704.22
2023-12-07T21:25:31.913Z,100718.59
2023-12-07T21:27:58.867Z,100714.25
2023-12-07T21:30:25.981Z,100720.03
2023-12-07T21:32:53.518Z,100716.00
2023-12-07T21:35:20.643Z,100715.25
2023-12-07T21:37:48.838Z,100711.16
2023-12-07T21:40:15.649Z,100708.78
2023-12-07T21:42:42.679Z,100713.59
2023-12-07T21:45:09.758Z,100714.72
2023-12-07T21:47:38.041Z,100723.66
2023-12-07T21:50:05.339Z,100721.38
2023-12-07T21:52:32.537Z,100725.31
2023-12-07T21:54:59.587Z,100730.34
2023-12-07T21:57:26.885Z,100720.28
2023-12-07T21:59:54.584Z,100719.09
2023-12-07T22:02:21.644Z,100729.47
2023-12-07T22:04:49.951Z,100731.09
2023-12-07T22:07:17.081Z,100726.59
2023-12-07T22:09:43.870Z,100720.69
2023-12-07T22:12:11.069Z,100727.09
2023-12-07T22:14:41.496Z,100731.41
2023-12-07T22:17:08.969Z,100732.69
2023-12-07T22:19:36.080Z,100721.47
2023-12-07T22:22:03.712Z,100722.25
2023-12-07T22:24:30.549Z,100733.19
2023-12-07T22:26:57.975Z,100732.06
2023-12-07T22:29:27.200Z,100733.16
2023-12-07T22:31:56.105Z,100734.47
2023-12-07T22:34:24.026Z,100729.66
2023-12-07T22:36:51.529Z,100730.31
2023-12-07T22:39:18.765Z,100723.56
2023-12-07T22:41:45.723Z,100726.53
2023-12-07T22:44:15.557Z,100730.38
2023-12-07T22:46:46.086Z,100723.50
2023-12-07T22:49:17.551Z,100725.72
2023-12-07T22:51:44.505Z,100718.59
2023-12-07T22:54:11.291Z,100716.91
2023-12-07T22:56:38.203Z,100712.38
2023-12-07T22:59:05.081Z,100717.22
2023-12-07T23:01:32.025Z,100717.97
2023-12-07T23:04:01.510Z,100715.47
2023-12-07T23:06:28.765Z,100713.81
2023-12-07T23:08:56.419Z,100717.91
2023-12-07T23:11:23.461Z,100721.28
2023-12-07T23:13:50.463Z,100716.91
2023-12-07T23:16:17.562Z,100709.88
2023-12-07T23:18:44.503Z,100711.41
2023-12-07T23:21:15.576Z,100709.31
2023-12-07T23:23:42.486Z,100707.56
2023-12-07T23:26:10.788Z,100706.19
2023-12-07T23:28:37.704Z,100710.22
2023-12-07T23:31:04.874Z,100707.72
2023-12-07T23:33:31.792Z,100702.53
2023-12-07T23:35:59.168Z,100699.03
2023-12-07T23:38:26.262Z,100694.19
2023-12-07T23:40:53.100Z,100689.06
2023-12-07T23:43:19.889Z,100686.78
2023-12-07T23:45:46.716Z,100695.38
2023-12-07T23:48:13.656Z,100695.94
2023-12-07T23:50:40.682Z,100690.75
2023-12-07T23:53:07.454Z,100701.81
2023-12-07T23:55:34.171Z,100701.22
2023-12-07T23:58:01.108Z,100703.75
